Historyczne dane pomiarowe

Dodano dane terminowe – wersja testowa.

Dane z okresu 1951-2019

Wersja bazy: 1.34 [2019-03-16, lista zmian], aktualizacja planowana na 2019-04-15

Dane meteo z obszaru Polski uzyskane na podstawie danych udostępnionych przez Instytut Meteorologii i Gospodarki Wodnej – Państwowy Instytut Badawczy.

 

Wybierz Datę:    

       

TemperaturaWilgotnośćZachmurzenieWiatrCiśnienieWidzialnośćZjawiska
 Data    tng td wb rh cc ccl cl cm ch dir g1 g2 mslp ppp      
1999-07-17 00:00:00 4.0--- 3.8 3.998wxwxwx1wx--- 804.6 0.0---wx
1999-07-17 01:00:00 4.2--- 2.7 3.590wxwxwxwx2wx--- 804.7----wx
1999-07-17 02:00:00 4.0--- 4.0 4.0100wxwx2wx--- 804.4----wx
1999-07-17 03:00:00 3.9--- 3.9 3.9100wxwx2wx--- 804.4----wx
1999-07-17 04:00:00 4.1--- 4.1 4.1100wxwx2wx--- 804.5----wxw1
1999-07-17 05:00:00 4.3--- 4.3 4.3100wxwx3wx--- 804.6----wxw1
1999-07-17 06:00:00 4.4--- 4.4 4.4100wxwx3wx--- 804.7 0.0---wx
1999-07-17 07:00:00 5.1--- 3.8 4.491wxwxwx2wx--- 805.1----wx
1999-07-17 08:00:00 6.4--- 4.1 5.386wxwxwx2wx--- 805.4----wx
1999-07-17 09:00:00 6.4--- 4.8 5.690wxwxwx3wx--- 805.6----wxw1
1999-07-17 10:00:00 7.8--- 3.6 5.875wxwxwx3wx--- 805.9----wx
1999-07-17 11:00:00 8.5--- 5.1 6.880wxwxwx1wx--- 806.0----wx
1999-07-17 12:00:00 6.6--- 5.0 5.890wxwxwxwx2wx--- 806.0 0.0---wxw1
1999-07-17 13:00:00 8.1--- 5.3 6.682wxwxwxwx2wx--- 806.2----wx
1999-07-17 14:00:00 10.2--- 4.5 7.368wxwxwxwx2wx--- 806.2----wx
1999-07-17 15:00:00 7.9--- 3.6 5.874wxwxwx4wx--- 806.3----wx
1999-07-17 16:00:00 8.7--- 5.5 7.080wxwxwx2wx--- 806.1----wx
1999-07-17 17:00:00 7.5--- 6.2 6.891wxwxwxwx2wx--- 806.2----wx
1999-07-17 18:00:00 7.1--- 5.9 6.593wxwxwxwx3wx--- 806.2 0.0---wx
1999-07-17 19:00:00 5.6--- 5.3 5.598wxwxwx4wx--- 806.2----wx
1999-07-17 20:00:00 5.3--- 4.6 5.095wxwxwxwx3wx--- 806.5----wx
1999-07-17 21:00:00 5.2--- 4.1 4.693wxwxwx4wx--- 806.5----wx
1999-07-17 22:00:00 4.8--- 3.6 4.392wxwx3wx--- 806.4----wx
1999-07-17 23:00:00 4.8--- 3.1 4.089wxwx4wx--- 806.3----wx

 

Źródłem pochodzenia danych jest Instytut Meteorologii i Gospodarki Wodnej – Państwowy Instytut Badawczy. Dane Instytutu Meteorologii i Gospodarki Wodnej – Państwowego Instytutu Badawczego zostały przetworzone.

Dane źródłowe można odnaleźć na stronie https://dane.imgw.pl